Time;durP1;ratioP1;P1;durP2;ratioP2;P2;SDS_P1;SDS_P2;PMS_P1;PMS_P2;Temp;Humidity;BMP_temperature;BMP_pressure;BME280_temperature;BME280_humidity;BME280_pressure;Samples;Min_cycle;Max_cycle;Signal;HPM_P1;HPM_P2
2022/12/11 00:01:23;;;;;;;68.13;31.67;;;;;;;0.17;100.00;101152.28;5135914;27;20023;-35
2022/12/11 00:03:49;;;;;;;71.97;31.37;;;;;;;0.27;100.00;101168.16;5135538;27;20023;-35
2022/12/11 00:06:17;;;;;;;66.68;29.95;;;;;;;0.31;100.00;101163.38;5136120;27;20034;-35
2022/12/11 00:08:43;;;;;;;74.55;32.67;;;;;;;0.36;100.00;101180.53;5135663;27;20038;-37
2022/12/11 00:11:10;;;;;;;66.32;28.23;;;;;;;0.36;100.00;101158.41;5135563;27;20114;-37
2022/12/11 00:13:35;;;;;;;78.57;31.30;;;;;;;0.42;100.00;101173.72;5135504;27;20020;-36
2022/12/11 00:16:01;;;;;;;70.40;31.57;;;;;;;0.34;100.00;101177.19;5135386;27;20034;-36
2022/12/11 00:18:26;;;;;;;74.75;32.65;;;;;;;0.32;100.00;101165.03;5134702;27;20027;-36
2022/12/11 00:20:52;;;;;;;65.33;32.23;;;;;;;0.39;100.00;101172.25;5135220;27;20115;-36
2022/12/11 00:23:17;;;;;;;74.40;30.87;;;;;;;0.34;100.00;101168.34;5135339;27;20031;-36
2022/12/11 00:25:45;;;;;;;61.40;28.43;;;;;;;0.44;100.00;101164.63;5135220;27;20034;-36
2022/12/11 00:28:11;;;;;;;58.50;28.42;;;;;;;0.46;100.00;101159.97;5134886;27;20489;-36
2022/12/11 00:30:42;;;;;;;73.35;33.15;;;;;;;0.36;100.00;101164.56;5135233;27;20410;-36
2022/12/11 00:33:09;;;;;;;73.00;33.38;;;;;;;0.36;100.00;101175.19;5135630;27;20054;-36
2022/12/11 00:35:46;;;;;;;74.55;32.47;;;;;;;0.33;100.00;101177.31;5135056;27;20027;-35
2022/12/11 00:38:16;;;;;;;71.70;32.28;;;;;;;0.36;100.00;101177.03;5133686;27;20099;-36
2022/12/11 00:40:42;;;;;;;75.55;33.90;;;;;;;0.27;100.00;101156.69;5133695;27;20102;-37
2022/12/11 00:43:08;;;;;;;69.18;31.67;;;;;;;0.34;100.00;101173.66;5135235;27;20019;-36
2022/12/11 00:45:39;;;;;;;71.80;32.45;;;;;;;0.32;100.00;101165.03;5134690;27;20023;-36
2022/12/11 00:48:05;;;;;;;72.68;33.00;;;;;;;0.34;100.00;101171.88;5135613;27;20042;-36
2022/12/11 00:50:30;;;;;;;64.57;30.65;;;;;;;0.31;100.00;101150.06;5134702;27;20110;-36
2022/12/11 00:52:56;;;;;;;67.00;31.57;;;;;;;0.35;100.00;101148.75;5135471;27;20038;-36
2022/12/11 00:55:21;;;;;;;73.53;31.90;;;;;;;0.46;100.00;101169.78;5133417;27;20038;-36
2022/12/11 00:57:46;;;;;;;71.20;30.77;;;;;;;0.42;100.00;101155.94;5133635;27;20130;-36
2022/12/11 01:00:12;;;;;;;76.70;33.17;;;;;;;0.38;100.00;101161.72;5134537;27;20019;-36
2022/12/11 01:02:38;;;;;;;70.18;31.92;;;;;;;0.35;100.00;101170.88;5135324;27;20042;-36
2022/12/11 01:05:04;;;;;;;72.80;33.27;;;;;;;0.33;100.00;101169.34;5134561;27;20035;-36
2022/12/11 01:07:29;;;;;;;66.22;33.60;;;;;;;0.33;100.00;101156.88;5134737;27;20524;-36
2022/12/11 01:12:38;;;;;;;66.22;31.30;;;;;;;0.39;100.00;101163.38;5134280;27;20042;-36
2022/12/11 01:15:05;;;;;;;51.47;24.73;;;;;;;0.56;100.00;101162.50;5132965;27;20039;-36
2022/12/11 01:17:30;;;;;;;67.25;30.20;;;;;;;0.48;100.00;101160.63;5134658;27;20023;-36
2022/12/11 01:19:55;;;;;;;66.70;30.77;;;;;;;0.50;100.00;101157.81;5130726;27;20043;-36
2022/12/11 01:22:21;;;;;;;71.90;31.77;;;;;;;0.41;100.00;101151.63;5134436;27;20463;-36
2022/12/11 01:24:46;;;;;;;57.50;29.17;;;;;;;0.49;100.00;101166.81;5133905;27;20072;-36
2022/12/11 01:27:12;;;;;;;59.60;28.77;;;;;;;0.52;100.00;101171.78;5134162;27;20356;-36
2022/12/11 01:29:37;;;;;;;63.43;32.73;;;;;;;0.43;100.00;101167.41;5134171;27;20471;-36
2022/12/11 01:32:03;;;;;;;60.30;30.40;;;;;;;0.50;100.00;101168.47;5134436;27;20102;-36
2022/12/11 01:34:29;;;;;;;58.03;29.17;;;;;;;0.49;100.00;101170.31;5134364;27;20027;-36
2022/12/11 01:36:55;;;;;;;57.25;27.73;;;;;;;0.61;100.00;101170.84;5133790;27;20341;-36
2022/12/11 01:39:20;;;;;;;63.83;29.90;;;;;;;0.59;100.00;101178.19;5134015;27;20027;-36
2022/12/11 01:41:45;;;;;;;56.17;28.83;;;;;;;0.61;100.00;101170.84;5133683;27;20039;-37
2022/12/11 01:44:14;;;;;;;53.20;28.07;;;;;;;0.69;100.00;101170.91;5132563;27;20039;-36
2022/12/11 01:46:39;;;;;;;54.92;28.73;;;;;;;0.69;100.00;101173.56;5133931;27;20031;-36
2022/12/11 01:49:09;;;;;;;57.63;29.40;;;;;;;0.61;100.00;101160.22;5133695;27;20027;-36
2022/12/11 01:51:43;;;;;;;50.97;26.40;;;;;;;0.60;100.00;101150.56;5132656;28;20023;-36
2022/12/11 01:54:12;;;;;;;54.65;28.13;;;;;;;0.65;100.00;101158.91;5134604;27;20114;-36
2022/12/11 01:56:40;;;;;;;47.90;27.83;;;;;;;0.63;100.00;101154.72;5135679;27;20524;-36
2022/12/11 01:59:08;;;;;;;52.10;28.42;;;;;;;0.64;100.00;101165.22;5137889;27;20019;-36
2022/12/11 02:01:41;;;;;;;51.10;26.90;;;;;;;0.70;100.00;101153.09;5137788;27;20028;-36
2022/12/11 02:04:07;;;;;;;46.85;26.17;;;;;;;0.71;100.00;101154.78;5138522;27;20058;-36
2022/12/11 02:06:37;;;;;;;44.97;23.60;;;;;;;0.76;100.00;101150.63;5138780;27;20041;-36
2022/12/11 02:09:06;;;;;;;48.20;27.73;;;;;;;0.75;100.00;101151.63;5138494;27;20031;-36
2022/12/11 02:12:01;;;;;;;48.05;25.20;;;;;;;0.80;100.00;101143.16;5137854;27;20034;-36
2022/12/11 02:14:55;;;;;;;48.13;27.15;;;;;;;0.76;100.00;101152.47;5138523;27;20056;-36
2022/12/11 02:17:34;;;;;;;39.72;22.50;;;;;;;0.69;100.00;101138.97;5138387;27;20038;-36
2022/12/11 02:20:26;;;;;;;44.58;26.33;;;;;;;0.70;100.00;101142.47;5137697;27;20382;-37
2022/12/11 02:23:13;;;;;;;45.13;25.25;;;;;;;0.74;100.00;101149.13;5138151;27;20030;-37
2022/12/11 02:26:04;;;;;;;48.25;26.00;;;;;;;0.76;100.00;101153.28;5137928;27;20464;-36
2022/12/11 02:28:57;;;;;;;45.28;25.85;;;;;;;0.81;100.00;101144.84;5137628;27;20066;-36
2022/12/11 02:31:33;;;;;;;39.80;23.05;;;;;;;0.82;100.00;101129.69;5053943;28;20029;-36
2022/12/11 02:34:08;;;;;;;50.58;27.05;;;;;;;0.73;100.00;101134.13;5054294;28;20040;-36
2022/12/11 02:36:39;;;;;;;43.00;24.23;;;;;;;0.78;100.00;101139.81;5053931;28;20041;-36
2022/12/11 02:39:08;;;;;;;44.30;23.48;;;;;;;0.92;100.00;101144.53;5054361;28;20484;-37
2022/12/11 02:41:34;;;;;;;40.03;23.65;;;;;;;0.84;100.00;101144.53;5053663;28;20033;-37
2022/12/11 02:44:02;;;;;;;40.55;23.35;;;;;;;0.79;100.00;101140.69;5053759;28;20067;-36
2022/12/11 02:46:30;;;;;;;37.58;23.48;;;;;;;0.77;100.00;101133.66;5054107;28;20040;-36
2022/12/11 02:48:56;;;;;;;39.25;23.00;;;;;;;0.73;100.00;101128.81;5054284;28;20037;-36
2022/12/11 02:51:29;;;;;;;39.00;23.48;;;;;;;0.71;100.00;101128.97;5053468;28;20036;-36
2022/12/11 02:53:58;;;;;;;37.40;23.05;;;;;;;0.75;100.00;101140.16;5036741;28;20029;-36
2022/12/11 02:56:29;;;;;;;43.15;23.75;;;;;;;0.70;100.00;101131.81;5037016;28;20501;-37
2022/12/11 02:58:58;;;;;;;37.38;22.17;;;;;;;0.81;100.00;101126.19;5053438;28;20028;-36
2022/12/11 03:01:24;;;;;;;33.83;21.02;;;;;;;0.77;100.00;101116.84;5053323;28;20040;-36
2022/12/11 03:03:50;;;;;;;37.25;23.17;;;;;;;0.82;100.00;101124.38;5036642;28;20106;-36
2022/12/11 03:06:19;;;;;;;35.23;22.40;;;;;;;0.73;100.00;101115.50;5053361;28;20397;-36
2022/12/11 03:08:44;;;;;;;40.63;24.35;;;;;;;0.63;100.00;101104.16;5111494;27;20050;-36
2022/12/11 03:11:11;;;;;;;38.17;25.17;;;;;;;0.67;100.00;101122.31;5136993;27;20027;-36
2022/12/11 03:13:38;;;;;;;33.60;22.05;;;;;;;0.68;100.00;101120.47;5137014;27;20027;-37
2022/12/11 03:16:08;;;;;;;33.38;20.92;;;;;;;0.78;100.00;101118.50;5136569;27;20100;-37
2022/12/11 03:18:57;;;;;;;36.20;22.98;;;;;;;0.66;100.00;101099.34;5137365;27;20089;-37
2022/12/11 03:21:46;;;;;;;36.70;21.92;;;;;;;0.59;100.00;101100.16;5132705;27;20122;-37
2022/12/11 03:24:33;;;;;;;31.65;20.17;;;;;;;0.71;100.00;101107.69;5073531;28;20152;-37
2022/12/11 03:27:05;;;;;;;31.13;20.15;;;;;;;0.65;100.00;101113.66;5073134;28;20087;-37
2022/12/11 03:29:36;;;;;;;28.77;20.45;;;;;;;0.65;100.00;101113.66;5073512;28;20064;-37
2022/12/11 03:32:15;;;;;;;28.58;20.35;;;;;;;0.56;100.00;101097.81;5072911;28;20032;-37
2022/12/11 03:34:44;;;;;;;30.80;20.13;;;;;;;0.66;100.00;101110.00;5072609;28;20056;-37
2022/12/11 03:37:12;;;;;;;32.08;21.08;;;;;;;0.66;100.00;101117.97;5072619;28;20032;-37
2022/12/11 03:39:43;;;;;;;27.77;19.63;;;;;;;0.66;100.00;101115.31;5072673;28;20463;-37
2022/12/11 03:42:11;;;;;;;30.00;20.48;;;;;;;0.60;100.00;101110.63;5072841;28;20067;-37
2022/12/11 03:44:38;;;;;;;26.70;19.15;;;;;;;0.66;100.00;101114.50;5072590;28;20492;-37
2022/12/11 03:47:05;;;;;;;;;;;;;;;0.71;100.00;101113.00;5072960;28;20115;-37
2022/12/11 03:49:35;;;;;;;26.52;19.23;;;;;;;0.73;100.00;101113.69;5072721;28;19927;-37
2022/12/11 03:52:03;;;;;;;27.95;20.20;;;;;;;0.66;100.00;101115.31;5072464;28;20389;-37
2022/12/11 03:54:30;;;;;;;27.60;18.48;;;;;;;0.64;100.00;101101.34;5073045;28;20106;-37
2022/12/11 03:56:58;;;;;;;25.00;16.98;;;;;;;0.73;100.00;101107.50;5072500;28;20043;-37
2022/12/11 03:59:23;;;;;;;24.15;18.05;;;;;;;0.70;100.00;101106.03;5072677;28;20119;-37
2022/12/11 04:01:49;;;;;;;23.50;17.73;;;;;;;0.61;100.00;101101.66;5112070;27;20449;-37
2022/12/11 04:04:15;;;;;;;25.13;18.60;;;;;;;0.60;100.00;101104.50;5135878;27;20031;-37
2022/12/11 04:06:40;;;;;;;22.37;17.23;;;;;;;0.54;100.00;101099.78;5135135;27;20035;-37
2022/12/11 04:09:05;;;;;;;22.80;16.93;;;;;;;0.54;100.00;101102.44;5135472;27;20023;-37
2022/12/11 04:11:33;;;;;;;22.70;15.93;;;;;;;0.50;100.00;101094.78;5135819;27;20076;-37
2022/12/11 04:16:48;;;;;;;20.08;15.52;;;;;;;0.57;100.00;101094.16;5134636;27;20050;-37
2022/12/11 04:24:14;;;;;;;21.85;16.75;;;;;;;0.47;100.00;101087.13;5136126;27;20066;-37
2022/12/11 04:24:59;;;;;;;21.52;15.98;;;;;;;0.58;100.00;101082.50;5134035;27;20046;-37
2022/12/11 04:30:14;;;;;;;20.75;15.90;;;;;;;0.54;100.00;101090.00;5135713;27;20477;-37
2022/12/11 04:32:40;;;;;;;22.10;16.58;;;;;;;0.61;100.00;101098.16;5135162;27;20460;-37
2022/12/11 04:35:07;;;;;;;21.75;16.98;;;;;;;0.62;100.00;101100.66;5135503;27;20097;-37
2022/12/11 04:37:32;;;;;;;20.05;15.85;;;;;;;0.57;100.00;101086.16;5134889;27;20027;-37
2022/12/11 04:39:58;;;;;;;17.08;15.10;;;;;;;0.57;100.00;101089.66;5135106;27;20038;-37
2022/12/11 04:42:23;;;;;;;19.67;15.80;;;;;;;0.57;100.00;101092.31;5135102;27;20105;-37
2022/12/11 04:44:48;;;;;;;16.80;14.23;;;;;;;0.58;100.00;101090.50;5135023;27;20022;-37
2022/12/11 04:47:14;;;;;;;19.10;15.20;;;;;;;0.49;100.00;101086.97;5134967;27;20027;-37
2022/12/11 04:49:39;;;;;;;18.37;14.90;;;;;;;0.40;100.00;101066.66;5134613;27;20031;-37
2022/12/11 04:52:04;;;;;;;19.77;14.87;;;;;;;0.53;100.00;101082.97;5134633;27;20052;-37
2022/12/11 04:54:31;;;;;;;18.20;14.10;;;;;;;0.56;100.00;101081.84;5135128;27;20391;-37
2022/12/11 04:56:56;;;;;;;18.40;14.25;;;;;;;0.54;100.00;101073.16;5135287;27;20066;-37
2022/12/11 04:59:21;;;;;;;18.70;13.90;;;;;;;0.55;100.00;101086.34;5134468;27;20070;-37
2022/12/11 05:01:47;;;;;;;17.17;13.07;;;;;;;0.51;100.00;101079.66;5134373;27;20624;-37
2022/12/11 05:04:12;;;;;;;17.50;13.38;;;;;;;0.56;100.00;101090.66;5134616;27;20033;-37
2022/12/11 05:06:38;;;;;;;15.63;12.83;;;;;;;0.56;100.00;101092.50;5135188;27;20560;-37
2022/12/11 05:09:03;;;;;;;18.27;14.33;;;;;;;0.54;100.00;101087.34;5133884;27;20074;-37
2022/12/11 05:11:28;;;;;;;19.30;15.17;;;;;;;0.45;100.00;101074.97;5134286;27;20023;-37
2022/12/11 05:13:54;;;;;;;16.53;13.60;;;;;;;0.58;100.00;101093.97;5135306;27;20030;-37
2022/12/11 05:16:19;;;;;;;16.30;12.47;;;;;;;0.62;100.00;101090.00;5134853;27;20362;-37
2022/12/11 05:18:46;;;;;;;17.53;12.93;;;;;;;0.56;100.00;101081.84;5134857;27;20023;-37
2022/12/11 05:21:13;;;;;;;17.23;12.98;;;;;;;0.60;100.00;101089.34;5113891;27;20075;-37
2022/12/11 05:23:38;;;;;;;17.55;12.38;;;;;;;0.57;100.00;101079.00;5093928;28;20077;-37
2022/12/11 05:26:09;;;;;;;16.20;12.80;;;;;;;0.51;100.00;101079.66;5093296;28;20032;-37
2022/12/11 05:28:37;;;;;;;19.85;13.80;;;;;;;0.54;100.00;101078.50;5093658;28;20035;-37
2022/12/11 05:31:10;;;;;;;18.25;13.77;;;;;;;0.56;100.00;101079.19;5092500;28;20057;-37
2022/12/11 05:33:35;;;;;;;16.60;12.68;;;;;;;0.53;100.00;101082.97;5093350;28;20349;-37
2022/12/11 05:36:01;;;;;;;17.17;12.90;;;;;;;0.57;100.00;101072.84;5091658;28;20029;-37
2022/12/11 05:38:26;;;;;;;16.08;11.82;;;;;;;0.58;100.00;101069.19;5093479;28;20028;-37
2022/12/11 05:41:03;;;;;;;15.10;12.17;;;;;;;0.60;100.00;101068.06;5093419;28;20103;-37
2022/12/11 05:43:30;;;;;;;;;;;;;;;0.62;100.00;101065.22;5093275;28;20034;-37
2022/12/11 05:46:12;;;;;;;13.98;10.65;;;;;;;0.55;100.00;101067.72;5093197;28;19907;-37
2022/12/11 05:48:38;;;;;;;13.88;10.68;;;;;;;0.59;100.00;101065.56;5092841;28;20484;-37
2022/12/11 05:51:05;;;;;;;14.38;10.65;;;;;;;0.58;100.00;101061.22;5092952;28;20392;-37
2022/12/11 05:53:31;;;;;;;16.77;12.43;;;;;;;0.58;100.00;101066.53;5093229;28;20108;-37
2022/12/11 05:56:01;;;;;;;;;;;;;;;0.67;100.00;101068.25;5093354;28;20036;-37
2022/12/11 05:58:27;;;;;;;14.35;10.73;;;;;;;0.66;100.00;101071.91;5092937;28;20019;-37
2022/12/11 06:00:52;;;;;;;15.25;11.35;;;;;;;0.60;100.00;101078.72;5092098;28;20178;-37
2022/12/11 06:03:17;;;;;;;15.83;11.60;;;;;;;0.59;100.00;101071.72;5093217;28;20070;-37
2022/12/11 06:05:43;;;;;;;17.07;11.60;;;;;;;0.60;100.00;101085.84;5093246;28;20097;-37
2022/12/11 06:08:08;;;;;;;15.63;12.37;;;;;;;0.59;100.00;101082.38;5092965;28;20056;-37
2022/12/11 06:10:34;;;;;;;16.58;11.90;;;;;;;0.57;100.00;101084.34;5092993;28;20464;-37
2022/12/11 06:12:59;;;;;;;14.67;11.43;;;;;;;0.62;100.00;101090.00;5091917;28;20033;-37
2022/12/11 06:15:25;;;;;;;14.90;11.60;;;;;;;0.62;100.00;101087.34;5092976;28;20035;-37
2022/12/11 06:17:51;;;;;;;17.15;12.52;;;;;;;0.64;100.00;101089.88;5092740;28;20365;-37
2022/12/11 06:20:16;;;;;;;15.07;11.30;;;;;;;0.66;100.00;101078.06;5096207;28;20107;-37
2022/12/11 06:22:41;;;;;;;16.50;12.37;;;;;;;0.67;100.00;101079.72;5133610;28;20122;-37
2022/12/11 06:25:07;;;;;;;19.33;13.67;;;;;;;0.61;100.00;101071.56;5132573;28;20047;-37
2022/12/11 06:27:32;;;;;;;14.65;11.02;;;;;;;0.55;100.00;101066.88;5115711;28;20055;-37
2022/12/11 06:29:58;;;;;;;13.40;10.60;;;;;;;0.64;100.00;101074.72;5133766;28;20023;-37
2022/12/11 06:32:23;;;;;;;12.37;9.60;;;;;;;0.75;100.00;101081.59;5133571;27;20027;-37
2022/12/11 06:34:48;;;;;;;14.03;10.63;;;;;;;0.74;100.00;101078.09;5134001;27;20024;-37
2022/12/11 06:37:14;;;;;;;14.37;11.07;;;;;;;0.73;100.00;101073.78;5133528;27;20444;-37
2022/12/11 06:39:39;;;;;;;13.73;11.10;;;;;;;0.73;100.00;101076.44;5133406;27;20020;-37
2022/12/11 06:42:04;;;;;;;15.80;10.93;;;;;;;0.77;100.00;101068.94;5134591;27;20027;-37
2022/12/11 06:44:29;;;;;;;11.80;10.00;;;;;;;0.88;100.00;101070.47;5136187;27;20488;-37
2022/12/11 06:46:55;;;;;;;15.37;12.13;;;;;;;0.84;100.00;101069.16;5137132;27;20072;-37
2022/12/11 06:49:20;;;;;;;16.03;10.97;;;;;;;0.76;100.00;101054.78;5137467;27;20027;-37
2022/12/11 06:51:46;;;;;;;14.00;10.07;;;;;;;0.95;100.00;101072.31;5137229;27;20023;-37
2022/12/11 06:54:11;;;;;;;16.50;11.70;;;;;;;0.94;100.00;101073.31;5136891;27;20027;-37
2022/12/11 06:56:37;;;;;;;16.00;12.05;;;;;;;0.94;100.00;101069.84;5137197;27;20226;-37
2022/12/11 06:59:02;;;;;;;14.80;12.10;;;;;;;0.91;100.00;101063.00;5135872;27;20110;-37
2022/12/11 07:01:28;;;;;;;16.00;11.60;;;;;;;0.93;100.00;101062.84;5136721;27;20519;-37
2022/12/11 07:03:55;;;;;;;14.85;11.82;;;;;;;0.86;100.00;101057.31;5136782;27;20076;-37
2022/12/11 07:06:21;;;;;;;14.60;11.07;;;;;;;0.91;100.00;101068.31;5136544;27;20031;-37
2022/12/11 07:08:46;;;;;;;16.05;11.73;;;;;;;0.91;100.00;101064.81;5137213;27;20030;-37
2022/12/11 07:11:14;;;;;;;15.37;11.43;;;;;;;0.83;100.00;101059.47;5137279;27;20351;-37
2022/12/11 07:13:41;;;;;;;16.00;12.00;;;;;;;0.74;100.00;101042.66;5136546;27;20515;-37
2022/12/11 07:16:10;;;;;;;14.65;11.25;;;;;;;0.94;100.00;101073.31;5137047;27;20023;-37
2022/12/11 07:18:55;;;;;;;16.83;11.48;;;;;;;1.04;100.00;101073.19;5137017;27;20124;-37
2022/12/11 07:21:21;;;;;;;16.33;12.45;;;;;;;1.02;100.00;101078.69;5136208;27;20348;-37
2022/12/11 07:23:47;;;;;;;16.30;12.63;;;;;;;1.01;100.00;101082.31;5137061;27;20092;-35
2022/12/11 07:26:15;;;;;;;15.13;12.57;;;;;;;1.01;100.00;101086.81;5136461;27;20277;-36
2022/12/11 07:28:41;;;;;;;16.27;12.23;;;;;;;1.00;100.00;101091.31;5136944;27;20118;-36
2022/12/11 07:31:26;;;;;;;16.88;12.20;;;;;;;0.97;100.00;101096.94;5136366;27;20154;-36
2022/12/11 07:34:11;;;;;;;14.35;11.93;;;;;;;0.98;100.00;101100.47;5136704;27;20033;-41
2022/12/11 07:36:37;;;;;;;14.10;11.57;;;;;;;0.86;100.00;101081.28;5134958;27;20463;-36
2022/12/11 07:39:02;;;;;;;15.57;12.33;;;;;;;0.89;100.00;101091.63;5136304;27;20072;-36
2022/12/11 07:41:28;;;;;;;15.35;12.65;;;;;;;0.89;100.00;101093.44;5136207;27;20374;-36
2022/12/11 07:43:54;;;;;;;15.73;12.43;;;;;;;0.90;100.00;101090.63;5136457;27;20042;-36
2022/12/11 07:46:23;;;;;;;14.45;12.27;;;;;;;0.87;100.00;101092.75;5136117;27;20114;-36
2022/12/11 07:48:49;;;;;;;16.40;12.88;;;;;;;0.87;100.00;101090.09;5136340;27;20038;-37
2022/12/11 07:51:27;;;;;;;17.02;13.18;;;;;;;0.76;100.00;101081.41;5134763;27;20023;-36
2022/12/11 07:53:55;;;;;;;17.25;13.55;;;;;;;0.81;100.00;101090.75;5134817;27;20157;-36
2022/12/11 07:56:21;;;;;;;19.27;12.13;;;;;;;0.89;100.00;101096.94;5135785;27;20374;-36
2022/12/11 07:58:47;;;;;;;17.77;13.25;;;;;;;0.93;100.00;101097.47;5136518;27;20031;-36
2022/12/11 08:01:13;;;;;;;17.08;12.85;;;;;;;0.97;100.00;101082.81;5135879;27;20080;-36
2022/12/11 08:03:39;;;;;;;18.00;13.07;;;;;;;1.10;100.00;101093.84;5136182;27;20447;-36
2022/12/11 08:06:05;;;;;;;17.55;12.77;;;;;;;1.10;100.00;101083.19;5135721;27;20058;-36
2022/12/11 08:08:31;;;;;;;16.30;12.43;;;;;;;1.09;100.00;101072.69;5135998;27;20023;-36
2022/12/11 08:11:03;;;;;;;16.10;12.38;;;;;;;1.16;100.00;101085.19;5135622;27;20080;-36
2022/12/11 08:13:28;;;;;;;16.75;12.55;;;;;;;1.11;100.00;101092.00;5135853;27;20366;-36
2022/12/11 08:15:54;;;;;;;14.10;11.27;;;;;;;1.18;100.00;101085.88;5135218;27;20105;-36
2022/12/11 08:18:19;;;;;;;18.13;13.17;;;;;;;1.17;100.00;101081.53;5135292;27;20111;-37
2022/12/11 08:20:44;;;;;;;14.77;12.23;;;;;;;1.02;100.00;101084.00;5135207;27;20122;-37
2022/12/11 08:23:10;;;;;;;18.43;12.83;;;;;;;1.14;100.00;101095.19;5135583;27;20110;-36
2022/12/11 08:25:35;;;;;;;16.10;12.40;;;;;;;1.12;100.00;101086.50;5135106;27;20080;-36
2022/12/11 08:28:00;;;;;;;14.83;11.87;;;;;;;1.19;100.00;101084.03;5135654;27;20038;-37
2022/12/11 08:30:26;;;;;;;16.23;11.80;;;;;;;1.22;100.00;101079.22;5135128;27;20028;-36
2022/12/11 08:32:52;;;;;;;17.88;13.27;;;;;;;1.18;100.00;101087.69;5135436;27;20072;-36
2022/12/11 08:35:17;;;;;;;17.80;13.60;;;;;;;0.98;100.00;101068.53;5133941;27;20043;-37
2022/12/11 08:37:42;;;;;;;16.57;12.60;;;;;;;1.17;100.00;101094.88;5134925;27;20065;-37
2022/12/11 08:40:09;;;;;;;15.30;12.10;;;;;;;1.15;100.00;101080.84;5135575;27;20051;-37
2022/12/11 08:42:35;;;;;;;20.25;13.60;;;;;;;1.13;100.00;101090.84;5135334;27;20019;-37
2022/12/11 08:45:00;;;;;;;15.67;11.93;;;;;;;1.11;100.00;101095.50;5135663;27;20463;-37
2022/12/11 08:47:26;;;;;;;18.57;14.00;;;;;;;1.07;100.00;101095.97;5134907;27;20066;-37
2022/12/11 08:49:51;;;;;;;21.27;14.02;;;;;;;0.99;100.00;101086.16;5135168;27;20050;-37
2022/12/11 08:52:16;;;;;;;21.33;14.93;;;;;;;1.00;100.00;101087.81;5134776;27;20023;-37
2022/12/11 08:54:42;;;;;;;21.17;14.93;;;;;;;0.95;100.00;101085.63;5135335;27;20020;-37
2022/12/11 08:57:07;;;;;;;18.50;13.87;;;;;;;0.92;100.00;101079.78;5134739;27;20062;-37
2022/12/11 08:59:32;;;;;;;18.73;13.73;;;;;;;0.89;100.00;101080.97;5134455;27;20392;-37
2022/12/11 09:01:57;;;;;;;20.30;14.40;;;;;;;0.88;100.00;101076.66;5134326;27;20019;-37
2022/12/11 09:04:23;;;;;;;19.43;14.90;;;;;;;0.99;100.00;101080.81;5134766;27;20023;-37
2022/12/11 09:06:48;;;;;;;17.13;12.60;;;;;;;1.03;100.00;101075.00;5134786;27;20030;-37
2022/12/11 09:09:14;;;;;;;19.23;14.27;;;;;;;0.96;100.00;101079.31;5135033;27;20027;-37
2022/12/11 09:11:39;;;;;;;19.73;14.43;;;;;;;0.96;100.00;101068.66;5134515;27;20105;-37
2022/12/11 09:14:05;;;;;;;20.90;14.80;;;;;;;0.97;100.00;101072.97;5134632;27;20027;-37
2022/12/11 09:16:31;;;;;;;17.42;13.68;;;;;;;0.99;100.00;101070.19;5134186;27;20483;-37
2022/12/11 09:18:58;;;;;;;18.02;13.50;;;;;;;0.92;100.00;101058.50;5134891;27;20528;-37
2022/12/11 09:21:26;;;;;;;18.85;13.90;;;;;;;0.99;100.00;101071.00;5134087;27;20089;-37
2022/12/11 09:23:54;;;;;;;18.33;14.00;;;;;;;0.95;100.00;101077.66;5133220;27;20028;-37
2022/12/11 09:26:19;;;;;;;18.17;13.65;;;;;;;0.96;100.00;101075.81;5134156;27;20079;-37
2022/12/11 09:28:46;;;;;;;18.95;13.85;;;;;;;0.98;100.00;101077.34;5133972;27;20031;-37
2022/12/11 09:31:15;;;;;;;17.90;13.80;;;;;;;1.03;100.00;101080.34;5134423;27;20455;-37
2022/12/11 09:33:41;;;;;;;19.73;14.18;;;;;;;1.00;100.00;101085.97;5134885;27;20374;-37
2022/12/11 09:36:07;;;;;;;18.13;13.50;;;;;;;0.99;100.00;101078.16;5134026;27;20039;-37
2022/12/11 09:38:32;;;;;;;;;;;;;;;1.07;100.00;101080.00;5134662;27;20027;-37
2022/12/11 09:40:59;;;;;;;19.25;13.63;;;;;;;1.03;100.00;101082.19;5133927;27;20331;-37
2022/12/11 09:43:37;;;;;;;18.08;13.38;;;;;;;1.03;100.00;101075.00;5133631;27;20046;-37
2022/12/11 09:46:08;;;;;;;19.58;14.20;;;;;;;0.98;100.00;101081.84;5134256;27;20030;-37
2022/12/11 09:48:34;;;;;;;19.40;14.35;;;;;;;0.98;100.00;101079.16;5133922;27;20062;-37
2022/12/11 09:51:09;;;;;;;19.73;13.70;;;;;;;0.98;100.00;101077.34;5134698;27;20427;-37
2022/12/11 09:53:35;;;;;;;20.55;14.00;;;;;;;0.96;100.00;101073.16;5134375;27;20378;-37
2022/12/11 09:56:18;;;;;;;19.63;13.60;;;;;;;1.01;100.00;101071.66;5132497;28;20125;-37
2022/12/11 09:58:46;;;;;;;20.00;14.05;;;;;;;0.97;100.00;101069.50;5133556;27;20024;-37
2022/12/11 10:01:23;;;;;;;20.40;15.10;;;;;;;0.96;100.00;101068.66;5133520;28;20513;-37
2022/12/11 10:04:34;;;;;;;18.73;13.60;;;;;;;0.99;100.00;101062.19;5134105;27;20097;-37
2022/12/11 10:07:18;;;;;;;20.67;14.45;;;;;;;0.96;100.00;101055.34;5051123;28;20063;-37
2022/12/11 10:10:00;;;;;;;19.67;13.38;;;;;;;1.15;100.00;101067.53;5050756;28;20074;-37
2022/12/11 10:12:31;;;;;;;19.38;13.93;;;;;;;1.10;100.00;101047.72;5034040;28;20401;-38
2022/12/11 10:15:14;;;;;;;18.02;13.98;;;;;;;1.20;100.00;101059.88;5050771;28;20032;-37
2022/12/11 10:17:43;;;;;;;19.77;14.50;;;;;;;1.17;100.00;101070.03;5052922;28;20044;-37
2022/12/11 10:20:08;;;;;;;23.08;15.48;;;;;;;1.16;100.00;101055.88;5053999;28;20500;-38
2022/12/11 10:22:34;;;;;;;18.90;14.33;;;;;;;1.11;100.00;101044.88;5053529;28;20061;-37
2022/12/11 10:25:04;;;;;;;20.85;15.10;;;;;;;1.17;100.00;101051.38;5054257;28;20056;-37
2022/12/11 10:27:32;;;;;;;21.17;15.23;;;;;;;1.13;100.00;101058.88;5053882;28;20032;-37
2022/12/11 10:30:15;;;;;;;19.67;14.43;;;;;;;1.15;100.00;101062.22;5054511;28;20124;-37
2022/12/11 10:33:17;;;;;;;24.90;16.35;;;;;;;1.00;100.00;101032.72;5054183;28;20041;-37
2022/12/11 10:35:55;;;;;;;18.90;13.50;;;;;;;1.16;100.00;101052.38;5053922;28;20025;-37
2022/12/11 10:38:30;;;;;;;19.83;15.32;;;;;;;1.13;100.00;101050.06;5054491;28;20120;-37
2022/12/11 10:41:00;;;;;;;20.58;14.50;;;;;;;1.06;100.00;101049.88;5054127;28;20068;-36
2022/12/11 10:43:38;;;;;;;22.85;15.05;;;;;;;1.13;100.00;101056.22;5083422;27;20035;-36
2022/12/11 10:46:11;;;;;;;22.40;14.40;;;;;;;1.22;100.00;101055.25;5137592;27;20031;-36
2022/12/11 10:48:45;;;;;;;19.75;14.90;;;;;;;1.12;100.00;101043.88;5136622;27;20130;-36
2022/12/11 10:51:11;;;;;;;18.02;14.07;;;;;;;1.12;100.00;101053.72;5137994;27;20465;-36
2022/12/11 10:53:37;;;;;;;20.67;15.57;;;;;;;1.15;100.00;101048.88;5137163;27;20057;-36
2022/12/11 10:56:02;;;;;;;20.77;15.38;;;;;;;1.16;100.00;101045.22;5137473;27;20027;-36
2022/12/11 10:58:32;;;;;;;18.17;12.90;;;;;;;1.13;100.00;101034.09;5134695;27;20040;-36
2022/12/11 11:01:03;;;;;;;20.85;14.95;;;;;;;1.10;100.00;101043.22;5137107;27;20468;-36
2022/12/11 11:03:29;;;;;;;20.33;14.40;;;;;;;1.08;100.00;101047.91;5136665;27;20027;-36
2022/12/11 11:06:13;;;;;;;17.38;13.40;;;;;;;1.04;100.00;101038.56;5136860;27;20105;-36
2022/12/11 11:08:43;;;;;;;20.45;14.52;;;;;;;1.02;100.00;101035.22;5137440;27;20024;-37
2022/12/11 11:11:31;;;;;;;19.30;13.35;;;;;;;1.06;100.00;101036.56;5136868;27;20087;-37
2022/12/11 11:14:22;;;;;;;17.85;13.15;;;;;;;1.11;100.00;101036.91;5137241;27;20102;-37
2022/12/11 11:16:50;;;;;;;21.10;13.65;;;;;;;1.06;100.00;101020.56;5132822;27;20067;-36
2022/12/11 11:19:46;;;;;;;19.10;13.93;;;;;;;1.20;100.00;101032.41;5136750;27;20031;-36
2022/12/11 11:22:16;;;;;;;19.35;13.35;;;;;;;1.27;100.00;101033.44;5036254;28;20147;-36
2022/12/11 11:24:56;;;;;;;18.27;12.82;;;;;;;1.24;100.00;101034.59;5053651;28;20040;-36
2022/12/11 11:27:33;;;;;;;19.80;13.75;;;;;;;1.20;100.00;101021.75;5053107;28;20088;-36
2022/12/11 11:30:04;;;;;;;21.45;14.60;;;;;;;1.11;100.00;101020.91;5051834;28;20029;-36